createdAt,value
2022-11-17T00:00:49.843Z,74.77
2022-11-17T00:03:22.650Z,74.73
2022-11-17T00:05:58.220Z,74.72
2022-11-17T00:08:31.486Z,75.15
2022-11-17T00:11:05.215Z,74.96
2022-11-17T00:13:56.629Z,75.03
2022-11-17T00:16:30.874Z,74.65
2022-11-17T00:19:40.069Z,75.00
2022-11-17T00:22:21.698Z,74.92
2022-11-17T00:24:54.626Z,74.71
2022-11-17T00:27:27.550Z,74.76
2022-11-17T00:30:00.624Z,74.72
2022-11-17T00:32:59.118Z,75.08
2022-11-17T00:35:33.683Z,74.76
2022-11-17T00:38:19.788Z,74.88
2022-11-17T00:40:52.555Z,74.87
2022-11-17T00:43:25.489Z,74.80
2022-11-17T00:46:01.741Z,75.08
2022-11-17T00:48:38.219Z,75.32
2022-11-17T00:51:14.621Z,75.44
2022-11-17T00:53:51.958Z,75.08
2022-11-17T00:56:25.645Z,74.71
2022-11-17T00:58:58.602Z,74.83
2022-11-17T01:01:31.772Z,74.73
2022-11-17T01:04:05.428Z,75.06
2022-11-17T01:06:44.619Z,74.66
2022-11-17T01:09:32.707Z,75.02
2022-11-17T01:12:09.997Z,74.93
2022-11-17T01:14:45.206Z,75.38
2022-11-17T01:17:18.037Z,75.28
2022-11-17T01:19:50.865Z,75.21
2022-11-17T01:22:23.765Z,74.89
2022-11-17T01:25:00.717Z,75.01
2022-11-17T01:27:33.533Z,75.01
2022-11-17T01:30:06.960Z,75.38
2022-11-17T01:32:40.779Z,75.04
2022-11-17T01:35:18.209Z,75.11
2022-11-17T01:37:52.062Z,75.79
2022-11-17T01:40:26.474Z,75.65
2022-11-17T01:42:59.365Z,75.21
2022-11-17T01:45:33.876Z,74.92
2022-11-17T01:48:08.202Z,74.82
2022-11-17T01:50:42.109Z,75.13
2022-11-17T01:53:16.709Z,74.89
2022-11-17T01:55:56.938Z,75.07
2022-11-17T01:58:33.148Z,75.12
2022-11-17T02:01:06.095Z,74.93
2022-11-17T02:03:40.187Z,74.67
2022-11-17T02:06:17.130Z,74.43
2022-11-17T02:08:52.726Z,74.60
2022-11-17T02:11:27.761Z,74.63
2022-11-17T02:14:05.034Z,74.55
2022-11-17T02:16:37.701Z,74.73
2022-11-17T02:19:11.347Z,74.77
2022-11-17T02:21:56.815Z,74.89
2022-11-17T02:24:51.065Z,75.14
2022-11-17T02:27:37.390Z,75.21
2022-11-17T02:30:12.417Z,75.41
2022-11-17T02:32:51.000Z,75.55
2022-11-17T02:35:29.258Z,75.14
2022-11-17T02:38:06.753Z,75.00
2022-11-17T02:40:45.633Z,75.55
2022-11-17T02:43:39.077Z,75.23
2022-11-17T02:46:13.110Z,75.25
2022-11-17T02:48:47.589Z,75.65
2022-11-17T02:51:21.764Z,75.29
2022-11-17T02:53:57.217Z,75.24
2022-11-17T02:56:30.824Z,75.37
2022-11-17T02:59:06.605Z,75.29
2022-11-17T03:01:58.877Z,75.24
2022-11-17T03:04:37.290Z,75.23
2022-11-17T03:07:16.417Z,75.20
2022-11-17T03:09:50.921Z,74.92
2022-11-17T03:12:32.169Z,74.89
2022-11-17T03:15:16.635Z,75.64
2022-11-17T03:17:54.375Z,75.45
2022-11-17T03:20:28.801Z,75.20
2022-11-17T03:23:07.770Z,75.19
2022-11-17T03:25:43.923Z,75.59
2022-11-17T03:28:16.960Z,75.38
2022-11-17T03:30:52.322Z,75.38
2022-11-17T03:33:25.932Z,75.87
2022-11-17T03:36:05.042Z,75.53
2022-11-17T03:38:40.225Z,75.85
2022-11-17T03:41:16.860Z,75.50
2022-11-17T03:43:52.488Z,75.36
2022-11-17T03:46:27.875Z,75.20
2022-11-17T03:49:04.133Z,75.40
2022-11-17T03:51:38.337Z,75.24
2022-11-17T03:54:11.506Z,75.65
2022-11-17T03:56:49.036Z,75.46
2022-11-17T03:59:25.550Z,75.56
2022-11-17T04:02:01.306Z,75.36
2022-11-17T04:04:48.103Z,75.31
2022-11-17T04:07:23.688Z,75.32
2022-11-17T04:10:05.947Z,75.45
2022-11-17T04:13:10.920Z,75.52
2022-11-17T04:16:05.893Z,75.58
2022-11-17T04:18:59.014Z,75.67
2022-11-17T04:21:38.364Z,75.34
2022-11-17T04:24:13.719Z,75.58
2022-11-17T04:27:09.014Z,75.51
2022-11-17T04:29:45.252Z,75.52
2022-11-17T04:32:22.298Z,75.40
2022-11-17T04:34:59.628Z,75.44
2022-11-17T04:37:32.928Z,75.70
2022-11-17T04:40:08.316Z,75.71
2022-11-17T04:42:40.076Z,75.92
2022-11-17T04:45:12.863Z,75.51
2022-11-17T04:47:46.910Z,75.25
2022-11-17T04:50:21.179Z,75.45
2022-11-17T04:52:55.610Z,75.19
2022-11-17T04:55:28.764Z,75.35
2022-11-17T04:58:11.394Z,75.39
2022-11-17T05:00:48.969Z,75.28
2022-11-17T05:03:22.660Z,75.34
2022-11-17T05:05:59.410Z,75.68
2022-11-17T05:08:32.211Z,75.44
2022-11-17T05:11:34.190Z,75.48
2022-11-17T05:14:07.163Z,75.35
2022-11-17T05:16:57.650Z,75.70
2022-11-17T05:19:31.014Z,76.02
2022-11-17T05:22:25.651Z,75.39
2022-11-17T05:24:57.634Z,75.58
2022-11-17T05:27:30.424Z,75.38
2022-11-17T05:30:03.426Z,75.49
2022-11-17T05:32:36.173Z,75.48
2022-11-17T05:35:09.301Z,75.85
2022-11-17T05:37:43.375Z,75.66
2022-11-17T05:40:16.344Z,75.38
2022-11-17T05:42:52.962Z,75.68
2022-11-17T05:45:28.511Z,75.70
2022-11-17T05:48:01.605Z,75.50
2022-11-17T05:50:34.661Z,75.60
2022-11-17T05:53:08.878Z,76.12
2022-11-17T05:55:41.878Z,76.54
2022-11-17T05:58:18.166Z,76.48
2022-11-17T06:00:52.883Z,76.18
2022-11-17T06:03:27.024Z,76.10
2022-11-17T06:06:00.238Z,76.08
2022-11-17T06:08:34.979Z,76.03
2022-11-17T06:11:07.904Z,75.99
2022-11-17T06:13:40.802Z,76.08
2022-11-17T06:16:15.574Z,76.16
2022-11-17T06:18:50.152Z,76.04
2022-11-17T06:21:23.379Z,75.93
2022-11-17T06:23:57.396Z,75.96
2022-11-17T06:26:30.188Z,75.93
2022-11-17T06:29:05.243Z,76.05
2022-11-17T06:31:38.963Z,75.59
2022-11-17T06:34:11.856Z,75.59
2022-11-17T06:36:44.491Z,75.94
2022-11-17T06:39:18.551Z,75.88
2022-11-17T06:41:51.154Z,75.57
2022-11-17T06:44:25.259Z,75.61
2022-11-17T06:46:57.906Z,75.75
2022-11-17T06:49:31.062Z,75.68
2022-11-17T06:52:05.739Z,75.80
2022-11-17T06:54:40.246Z,76.09
2022-11-17T06:57:15.274Z,75.58
2022-11-17T06:59:49.169Z,75.62
2022-11-17T07:02:22.497Z,75.41
2022-11-17T07:05:00.303Z,75.64
2022-11-17T07:07:36.984Z,75.87
2022-11-17T07:10:12.908Z,75.69
2022-11-17T07:12:49.803Z,75.88
2022-11-17T07:15:22.851Z,75.77
2022-11-17T07:17:58.182Z,76.05
2022-11-17T07:20:38.745Z,75.98
2022-11-17T07:23:12.387Z,75.66
2022-11-17T07:25:47.399Z,75.36
2022-11-17T07:28:21.100Z,75.91
2022-11-17T07:30:54.086Z,75.97
2022-11-17T07:33:28.579Z,76.15
2022-11-17T07:36:05.719Z,76.03
2022-11-17T07:38:41.552Z,75.83
2022-11-17T07:41:15.900Z,75.95
2022-11-17T07:43:48.843Z,76.07
2022-11-17T07:46:21.661Z,75.61
2022-11-17T07:48:55.501Z,76.14
2022-11-17T07:51:28.354Z,76.15
2022-11-17T07:54:01.320Z,75.85
2022-11-17T07:56:37.848Z,76.29
2022-11-17T07:59:11.359Z,76.05
2022-11-17T08:01:44.137Z,76.54
2022-11-17T08:04:17.341Z,76.39
2022-11-17T08:06:58.845Z,76.07
2022-11-17T08:09:31.932Z,76.17
2022-11-17T08:12:06.161Z,76.85
2022-11-17T08:14:38.991Z,76.20
2022-11-17T08:17:15.072Z,76.53
2022-11-17T08:23:27.839Z,76.11
2022-11-17T08:26:03.448Z,75.93
2022-11-17T08:28:39.577Z,76.10
2022-11-17T08:31:12.731Z,75.94
2022-11-17T08:33:48.177Z,76.11
2022-11-17T08:36:20.952Z,76.23
2022-11-17T08:38:54.940Z,76.13
2022-11-17T08:41:27.514Z,75.92
2022-11-17T08:44:02.030Z,75.99
2022-11-17T08:46:36.087Z,76.10
2022-11-17T08:49:12.170Z,76.42
2022-11-17T08:51:45.026Z,76.21
2022-11-17T08:54:23.999Z,75.88
2022-11-17T08:56:58.269Z,75.71
2022-11-17T08:59:32.441Z,75.97
2022-11-17T09:02:06.799Z,75.59
2022-11-17T09:04:40.201Z,75.35
2022-11-17T09:07:14.179Z,75.20
2022-11-17T09:09:51.553Z,75.87
2022-11-17T09:12:24.675Z,75.08
2022-11-17T09:14:58.961Z,75.04
2022-11-17T09:17:32.431Z,75.52
2022-11-17T09:20:05.661Z,75.50
2022-11-17T09:22:38.470Z,75.59
2022-11-17T09:25:13.575Z,74.95
2022-11-17T09:27:47.709Z,75.44
2022-11-17T09:30:22.416Z,75.27
2022-11-17T09:32:55.375Z,75.16
2022-11-17T09:35:28.056Z,75.42
2022-11-17T09:38:02.099Z,75.67
2022-11-17T09:40:39.306Z,75.54
2022-11-17T09:43:19.339Z,75.17
2022-11-17T09:45:53.919Z,75.52
2022-11-17T09:48:41.240Z,75.58
2022-11-17T09:51:26.536Z,75.49
2022-11-17T09:54:04.684Z,75.38
2022-11-17T09:56:37.767Z,75.49
2022-11-17T09:59:12.911Z,75.57
2022-11-17T10:01:47.116Z,74.98
2022-11-17T10:04:20.435Z,75.40
2022-11-17T10:06:53.526Z,75.34
2022-11-17T10:09:36.916Z,75.01
2022-11-17T10:12:15.015Z,74.80
2022-11-17T10:14:49.954Z,75.41
2022-11-17T10:17:23.899Z,74.68
2022-11-17T10:19:56.433Z,74.70
2022-11-17T10:22:34.781Z,74.75
2022-11-17T10:25:21.722Z,74.71
2022-11-17T10:27:54.981Z,74.97
2022-11-17T10:30:28.184Z,74.96
2022-11-17T10:33:02.889Z,75.16
2022-11-17T10:35:36.577Z,74.95
2022-11-17T10:38:17.711Z,74.29
2022-11-17T10:40:52.181Z,74.54
2022-11-17T10:43:28.255Z,74.53
2022-11-17T10:46:03.444Z,75.01
2022-11-17T10:48:38.842Z,74.90
2022-11-17T10:51:22.738Z,74.67
2022-11-17T10:54:02.213Z,74.38
2022-11-17T10:56:39.119Z,74.17
2022-11-17T10:59:16.048Z,74.23
2022-11-17T11:01:52.619Z,74.09
2022-11-17T11:04:33.105Z,74.49
2022-11-17T11:07:13.161Z,74.11
2022-11-17T11:09:50.146Z,73.81
2022-11-17T11:12:31.185Z,74.20
2022-11-17T11:15:04.689Z,73.92
2022-11-17T11:17:37.578Z,74.11
2022-11-17T11:20:15.525Z,73.92
2022-11-17T11:22:53.658Z,73.95
2022-11-17T11:25:34.543Z,73.80
2022-11-17T11:28:18.084Z,73.81
2022-11-17T11:30:56.842Z,74.10
2022-11-17T11:33:34.336Z,73.79
2022-11-17T11:36:21.870Z,74.48
2022-11-17T11:39:08.241Z,74.35
2022-11-17T11:41:50.282Z,74.17
2022-11-17T11:44:30.983Z,74.42
2022-11-17T11:47:06.468Z,74.28
2022-11-17T11:49:43.367Z,74.49
2022-11-17T11:52:20.298Z,74.58
2022-11-17T11:54:57.830Z,74.25
2022-11-17T11:57:35.497Z,74.29
2022-11-17T12:00:14.626Z,73.87
2022-11-17T12:02:51.215Z,74.11
2022-11-17T12:05:27.711Z,74.28
2022-11-17T12:08:10.410Z,74.25
2022-11-17T12:10:47.295Z,74.44
2022-11-17T12:13:22.361Z,74.04
2022-11-17T12:16:16.961Z,74.16
2022-11-17T12:18:49.507Z,74.11
2022-11-17T12:21:24.665Z,74.53
2022-11-17T12:24:12.581Z,74.08
2022-11-17T12:26:47.111Z,74.66
2022-11-17T12:29:31.075Z,74.57
2022-11-17T12:32:09.799Z,74.38
2022-11-17T12:34:42.754Z,74.07
2022-11-17T12:37:26.548Z,74.27
2022-11-17T12:40:00.692Z,74.57
2022-11-17T12:42:35.867Z,74.10
2022-11-17T12:45:12.568Z,74.18
2022-11-17T12:48:05.140Z,74.65
2022-11-17T12:50:45.376Z,74.87
2022-11-17T12:53:26.190Z,74.94
2022-11-17T12:56:20.460Z,74.44
2022-11-17T12:58:59.951Z,74.35
2022-11-17T13:01:38.881Z,74.38
2022-11-17T13:04:15.539Z,73.97
2022-11-17T13:07:00.163Z,74.87
2022-11-17T13:09:34.896Z,74.09
2022-11-17T13:12:09.134Z,74.08
2022-11-17T13:14:54.070Z,74.02
2022-11-17T13:17:42.784Z,74.30
2022-11-17T13:20:20.252Z,74.07
2022-11-17T13:23:00.276Z,74.34
2022-11-17T13:25:33.777Z,73.96
2022-11-17T13:28:07.047Z,74.27
2022-11-17T13:30:41.487Z,74.15
2022-11-17T13:33:20.937Z,74.12
2022-11-17T13:36:10.013Z,73.96
2022-11-17T13:38:47.923Z,74.20
2022-11-17T13:41:21.354Z,74.02
2022-11-17T13:43:55.103Z,73.61
2022-11-17T13:46:29.512Z,73.54
2022-11-17T13:49:04.569Z,74.20
2022-11-17T13:51:39.625Z,74.80
2022-11-17T13:54:16.545Z,74.69
2022-11-17T13:56:52.756Z,74.96
2022-11-17T13:59:27.550Z,74.54
2022-11-17T14:02:24.628Z,74.84
2022-11-17T14:05:23.101Z,74.90
2022-11-17T14:07:58.497Z,74.75
2022-11-17T14:10:33.165Z,74.85
2022-11-17T14:13:36.202Z,74.88
2022-11-17T14:16:27.941Z,74.45
2022-11-17T14:19:05.549Z,74.79
2022-11-17T14:22:02.252Z,75.16
2022-11-17T14:24:37.113Z,74.75
2022-11-17T14:27:18.155Z,74.86
2022-11-17T14:29:54.356Z,74.89
2022-11-17T14:32:34.974Z,74.45
2022-11-17T14:35:09.114Z,74.91
2022-11-17T14:37:41.858Z,75.00
2022-11-17T14:40:20.192Z,74.76
2022-11-17T14:42:52.943Z,75.22
2022-11-17T14:45:25.585Z,74.87
2022-11-17T14:47:58.360Z,74.29
2022-11-17T14:50:33.315Z,74.49
2022-11-17T14:53:06.174Z,73.73
2022-11-17T14:55:40.818Z,73.61
2022-11-17T14:58:13.838Z,74.47
2022-11-17T15:00:46.591Z,74.43
2022-11-17T15:03:26.886Z,74.76
2022-11-17T15:06:00.087Z,74.29
2022-11-17T15:08:36.913Z,74.27
2022-11-17T15:11:17.257Z,74.46
2022-11-17T15:13:50.226Z,74.03
2022-11-17T15:16:25.219Z,73.75
2022-11-17T15:19:03.719Z,74.20
2022-11-17T15:21:53.055Z,74.08
2022-11-17T15:24:26.274Z,74.14
2022-11-17T15:27:00.618Z,74.20
2022-11-17T15:29:35.726Z,74.26
2022-11-17T15:32:14.344Z,74.08
2022-11-17T15:35:17.628Z,74.44
2022-11-17T15:41:01.243Z,73.83
2022-11-17T15:43:40.418Z,74.25
2022-11-17T15:46:45.961Z,74.00
2022-11-17T15:49:25.973Z,73.91
2022-11-17T15:52:01.687Z,73.87
2022-11-17T15:54:42.845Z,74.15
2022-11-17T15:57:27.356Z,73.89
2022-11-17T16:00:06.972Z,73.66
2022-11-17T16:02:41.894Z,74.06
2022-11-17T16:05:18.253Z,73.82
2022-11-17T16:07:58.598Z,73.88
2022-11-17T16:10:31.537Z,73.91
2022-11-17T16:13:04.591Z,74.05
2022-11-17T16:15:39.522Z,74.39
2022-11-17T16:18:14.186Z,74.16
2022-11-17T16:20:49.542Z,74.22
2022-11-17T16:23:27.187Z,73.65
2022-11-17T16:26:00.171Z,73.99
2022-11-17T16:28:34.211Z,74.05
2022-11-17T16:31:16.313Z,73.58
2022-11-17T16:33:51.946Z,74.16
2022-11-17T16:36:25.571Z,73.99
2022-11-17T16:39:02.413Z,74.54
2022-11-17T16:41:36.862Z,73.69
2022-11-17T16:44:13.059Z,74.12
2022-11-17T16:46:49.053Z,74.28
2022-11-17T16:49:22.288Z,74.37
2022-11-17T16:51:55.555Z,74.11
2022-11-17T16:54:29.571Z,73.93
2022-11-17T16:57:04.728Z,73.86
2022-11-17T16:59:37.778Z,73.62
2022-11-17T17:02:27.591Z,73.83
2022-11-17T17:05:01.893Z,73.90
2022-11-17T17:07:35.051Z,74.03
2022-11-17T17:10:08.531Z,74.04
2022-11-17T17:12:46.717Z,74.05
2022-11-17T17:15:21.161Z,73.97
2022-11-17T17:17:56.526Z,73.72
2022-11-17T17:20:32.172Z,73.80
2022-11-17T17:23:05.182Z,73.97
2022-11-17T17:25:38.220Z,73.56
2022-11-17T17:28:11.325Z,73.25
2022-11-17T17:30:56.487Z,73.88
2022-11-17T17:33:33.795Z,73.63
2022-11-17T17:36:08.141Z,73.80
2022-11-17T17:38:44.113Z,73.93
2022-11-17T17:41:17.867Z,73.90
2022-11-17T17:43:56.017Z,74.29
2022-11-17T17:46:38.411Z,74.37
2022-11-17T17:49:14.758Z,74.33
2022-11-17T17:51:47.907Z,74.16
2022-11-17T17:54:23.983Z,74.01
2022-11-17T17:56:59.156Z,74.32
2022-11-17T17:59:40.988Z,73.84
2022-11-17T18:02:16.421Z,73.79
2022-11-17T18:04:54.392Z,73.92
2022-11-17T18:07:33.886Z,74.01
2022-11-17T18:10:07.367Z,74.15
2022-11-17T18:12:42.160Z,73.68
2022-11-17T18:15:15.377Z,73.81
2022-11-17T18:17:50.512Z,74.06
2022-11-17T18:20:28.091Z,74.11
2022-11-17T18:23:01.662Z,73.93
2022-11-17T18:25:36.387Z,74.12
2022-11-17T18:28:11.757Z,74.23
2022-11-17T18:30:56.421Z,73.78
2022-11-17T18:33:37.170Z,73.79
2022-11-17T18:36:11.623Z,73.72
2022-11-17T18:38:44.661Z,73.99
2022-11-17T18:41:27.433Z,73.46
2022-11-17T18:44:02.527Z,73.46
2022-11-17T18:46:38.201Z,73.71
2022-11-17T18:49:14.428Z,73.56
2022-11-17T18:51:53.043Z,73.75
2022-11-17T18:54:27.362Z,73.75
2022-11-17T18:57:02.324Z,73.85
2022-11-17T18:59:40.235Z,73.59
2022-11-17T19:02:13.512Z,73.75
2022-11-17T19:04:57.114Z,73.58
2022-11-17T19:07:45.029Z,73.63
2022-11-17T19:10:22.417Z,73.77
2022-11-17T19:12:55.674Z,73.74
2022-11-17T19:15:28.659Z,73.92
2022-11-17T19:18:09.692Z,73.89
2022-11-17T19:20:48.268Z,73.60
2022-11-17T19:23:27.021Z,74.16
2022-11-17T19:26:04.548Z,73.63
2022-11-17T19:28:45.707Z,73.83
2022-11-17T19:31:21.790Z,73.88
2022-11-17T19:33:55.496Z,74.11
2022-11-17T19:36:29.499Z,74.15
2022-11-17T19:39:08.985Z,73.96
2022-11-17T19:41:49.422Z,74.13
2022-11-17T19:44:27.516Z,73.85
2022-11-17T19:47:02.104Z,73.97
2022-11-17T19:49:35.228Z,74.00
2022-11-17T19:52:10.957Z,73.91
2022-11-17T19:54:48.128Z,73.80
2022-11-17T19:57:26.198Z,73.97
2022-11-17T20:00:04.399Z,73.77
2022-11-17T20:02:46.967Z,73.74
2022-11-17T20:05:22.552Z,74.13
2022-11-17T20:07:55.658Z,74.61
2022-11-17T20:10:30.069Z,74.35
2022-11-17T20:13:16.658Z,74.09
2022-11-17T20:16:00.821Z,74.05
2022-11-17T20:18:36.779Z,73.73
2022-11-17T20:21:24.433Z,74.17
2022-11-17T20:24:02.757Z,73.99
2022-11-17T20:26:46.624Z,74.26
2022-11-17T20:29:19.935Z,74.00
2022-11-17T20:34:56.263Z,73.96
2022-11-17T20:37:33.211Z,74.86
2022-11-17T20:40:12.586Z,74.43
2022-11-17T20:42:46.987Z,74.63
2022-11-17T20:45:22.607Z,74.42
2022-11-17T20:48:00.997Z,74.33
2022-11-17T20:50:38.636Z,74.13
2022-11-17T20:53:15.556Z,73.57
2022-11-17T20:55:54.955Z,73.55
2022-11-17T20:58:32.758Z,73.71
2022-11-17T21:01:09.583Z,73.80
2022-11-17T21:03:43.217Z,73.49
2022-11-17T21:06:21.020Z,73.71
2022-11-17T21:08:59.406Z,73.74
2022-11-17T21:14:41.145Z,73.28
2022-11-17T21:17:30.242Z,73.77
2022-11-17T21:20:06.939Z,73.23
2022-11-17T21:22:39.921Z,73.78
2022-11-17T21:25:12.641Z,73.96
2022-11-17T21:27:45.704Z,73.70
2022-11-17T21:30:20.526Z,74.32
2022-11-17T21:32:53.516Z,73.87
2022-11-17T21:35:26.440Z,73.63
2022-11-17T21:38:01.522Z,73.88
2022-11-17T21:40:34.295Z,73.88
2022-11-17T21:43:06.967Z,73.71
2022-11-17T21:45:41.044Z,74.09
2022-11-17T21:48:14.074Z,74.02
2022-11-17T21:50:48.615Z,74.25
2022-11-17T21:53:23.027Z,73.89
2022-11-17T21:56:01.172Z,73.82
2022-11-17T21:58:34.228Z,73.76
2022-11-17T22:01:09.204Z,73.65
2022-11-17T22:03:42.324Z,73.77
2022-11-17T22:06:20.870Z,74.05
2022-11-17T22:08:57.426Z,73.72
2022-11-17T22:11:37.683Z,73.55
2022-11-17T22:14:13.708Z,73.40
2022-11-17T22:16:49.013Z,73.45
2022-11-17T22:19:23.275Z,73.59
2022-11-17T22:21:57.530Z,73.46
2022-11-17T22:24:32.119Z,73.34
2022-11-17T22:27:05.396Z,73.66
2022-11-17T22:29:40.607Z,73.89
2022-11-17T22:32:17.123Z,73.53
2022-11-17T22:34:50.844Z,73.55
2022-11-17T22:37:26.703Z,73.67
2022-11-17T22:40:00.222Z,73.82
2022-11-17T22:42:36.891Z,73.56
2022-11-17T22:45:11.143Z,73.64
2022-11-17T22:47:57.581Z,74.03
2022-11-17T22:50:32.704Z,73.92
2022-11-17T22:53:06.239Z,73.70
2022-11-17T22:55:39.066Z,73.29
2022-11-17T22:58:16.194Z,73.25
2022-11-17T23:00:49.130Z,73.33
2022-11-17T23:03:26.040Z,73.84
2022-11-17T23:06:02.056Z,73.34
2022-11-17T23:08:35.390Z,73.64
2022-11-17T23:11:35.435Z,73.66
2022-11-17T23:14:03.589Z,73.68
2022-11-17T23:16:36.897Z,73.65
2022-11-17T23:19:16.473Z,73.80
2022-11-17T23:21:49.590Z,73.61
2022-11-17T23:24:24.388Z,74.20
2022-11-17T23:26:59.584Z,73.97
2022-11-17T23:29:32.453Z,74.11
2022-11-17T23:32:05.394Z,74.00
2022-11-17T23:34:39.846Z,73.85
2022-11-17T23:37:12.932Z,74.19
2022-11-17T23:39:48.817Z,73.91
2022-11-17T23:42:21.477Z,73.99
2022-11-17T23:44:54.324Z,74.09
2022-11-17T23:47:27.017Z,74.19
2022-11-17T23:50:01.384Z,74.21
2022-11-17T23:52:34.033Z,74.28
2022-11-17T23:55:08.009Z,74.11
2022-11-17T23:57:46.332Z,74.00
